Time;durP1;ratioP1;P1;durP2;ratioP2;P2;SDS_P1;SDS_P2;PMS_P1;PMS_P2;Temp;Humidity;BMP_temperature;BMP_pressure;BME280_temperature;BME280_humidity;BME280_pressure;Samples;Min_cycle;Max_cycle;Signal;HPM_P1;HPM_P2
2022/01/05 00:02:14;;;;;;;;;;;;;;;;;;5071282;28;19951;-72
2022/01/05 00:04:41;;;;;;;;;;;;;;;;;;5069960;28;19925;-73
2022/01/05 00:07:07;;;;;;;;;;;;;;;;;;5069476;28;19929;-70
2022/01/05 00:09:34;;;;;;;;;;;;;;;;;;5072304;28;20018;-72
2022/01/05 00:12:01;;;;;;;;;;;;;;;;;;5070351;28;19932;-72
2022/01/05 00:14:28;;;;;;;;;;;;;;;;;;5072971;28;20424;-73
2022/01/05 00:16:55;;;;;;;;;;;;;;;;;;5072581;28;19928;-72
2022/01/05 00:19:22;;;;;;;;;;;;;;;;;;5069557;28;20276;-71
2022/01/05 00:21:49;;;;;;;;;;;;;;;;;;5073615;28;20284;-71
2022/01/05 00:24:16;;;;;;;;;;;;;;;;;;5071917;28;20015;-71
2022/01/05 00:26:43;;;;;;;;;;;;;;;;;;5071873;28;19968;-72
2022/01/05 00:29:10;;;;;;;;;;;;;;;;;;5070756;28;19934;-71
2022/01/05 00:31:37;;;;;;;;;;;;;;;;;;5070228;28;20249;-72
2022/01/05 00:34:04;;;;;;;;;;;;;;;;;;5066869;28;20386;-71
2022/01/05 00:36:31;;;;;;;;;;;;;;;;;;5071728;28;19931;-72
2022/01/05 00:38:58;;;;;;;;;;;;;;;;;;5062672;28;20393;-72
2022/01/05 00:41:25;;;;;;;;;;;;;;;;;;5066976;28;19924;-72
2022/01/05 00:43:52;;;;;;;;;;;;;;;;;;5067644;28;19925;-72
2022/01/05 00:46:19;;;;;;;;;;;;;;;;;;5070252;28;19940;-72
2022/01/05 00:48:46;;;;;;;;;;;;;;;;;;5067512;28;19930;-72
2022/01/05 00:51:15;;;;;;;;;;;;;;;;;;5067804;28;19933;-72
2022/01/05 00:53:42;;;;;;;;;;;;;;;;;;5066124;28;20385;-72
2022/01/05 00:56:09;;;;;;;;;;;;;;;;;;5063236;28;20019;-72
2022/01/05 00:58:36;;;;;;;;;;;;;;;;;;5068971;28;20381;-71
2022/01/05 01:01:03;;;;;;;;;;;;;;;;;;5071050;28;19932;-71
2022/01/05 01:03:30;;;;;;;;;;;;;;;;;;5068515;28;19931;-72
2022/01/05 01:05:58;;;;;;;;;;;;;;;;;;5072373;28;19947;-72
2022/01/05 01:08:25;;;;;;;;;;;;;;;;;;5070578;28;19924;-71
2022/01/05 01:10:52;;;;;;;;;;;;;;;;;;5066374;28;20354;-72
2022/01/05 01:13:19;;;;;;;;;;;;;;;;;;5067871;28;19964;-72
2022/01/05 01:15:47;;;;;;;;;;;;;;;;;;5068676;28;20015;-71
2022/01/05 01:18:14;;;;;;;;;;;;;;;;;;5068950;28;19928;-72
2022/01/05 01:20:41;;;;;;;;;;;;;;;;;;5071798;28;20385;-72
2022/01/05 01:23:08;;;;;;;;;;;;;;;;;;5067604;28;19924;-71
2022/01/05 01:25:35;;;;;;;;;;;;;;;;;;5065663;28;20401;-71
2022/01/05 01:28:02;;;;;;;;;;;;;;;;;;5068381;28;19928;-71
2022/01/05 01:30:31;;;;;;;;;;;;;;;;;;5069809;28;20029;-71
2022/01/05 01:32:58;;;;;;;;;;;;;;;;;;5067640;28;19936;-71
2022/01/05 01:35:25;;;;;;;;;;;;;;;;;;5068507;28;19928;-71
2022/01/05 01:37:52;;;;;;;;;;;;;;;;;;5070846;28;19925;-71
2022/01/05 01:40:19;;;;;;;;;;;;;;;;;;5067502;28;20019;-72
2022/01/05 01:42:46;;;;;;;;;;;;;;;;;;5068628;28;19936;-72
2022/01/05 01:45:13;;;;;;;;;;;;;;;;;;5067799;28;19939;-71
2022/01/05 01:47:41;;;;;;;;;;;;;;;;;;5063083;28;19928;-71
2022/01/05 01:50:08;;;;;;;;;;;;;;;;;;5070579;28;19932;-72
2022/01/05 01:52:35;;;;;;;;;;;;;;;;;;5067941;28;19994;-72
2022/01/05 01:55:04;;;;;;;;;;;;;;;;;;5065108;28;19970;-70
2022/01/05 01:57:31;;;;;;;;;;;;;;;;;;5069682;28;20337;-70
2022/01/05 01:59:58;;;;;;;;;;;;;;;;;;5068025;28;19961;-71
2022/01/05 02:02:25;;;;;;;;;;;;;;;;;;5065981;28;19932;-70
2022/01/05 02:04:52;;;;;;;;;;;;;;;;;;5067184;28;19925;-71
2022/01/05 02:07:19;;;;;;;;;;;;;;;;;;5066118;28;19929;-71
2022/01/05 02:09:46;;;;;;;;;;;;;;;;;;5070789;28;19929;-71
2022/01/05 02:12:13;;;;;;;;;;;;;;;;;;5067310;28;19932;-71
2022/01/05 02:14:40;;;;;;;;;;;;;;;;;;5071034;28;19951;-71
2022/01/05 02:17:15;;;;;;;;;;;;;;;;;;5069006;28;19925;-71
2022/01/05 02:19:42;;;;;;;;;;;;;;;;;;5064414;28;19971;-71
2022/01/05 02:22:09;;;;;;;;;;;;;;;;;;5064227;28;20665;-71
2022/01/05 02:24:36;;;;;;;;;;;;;;;;;;5066833;28;19924;-72
2022/01/05 02:27:03;;;;;;;;;;;;;;;;;;5068668;28;19931;-71
2022/01/05 02:29:30;;;;;;;;;;;;;;;;;;5064355;28;19943;-71
2022/01/05 02:32:00;;;;;;;;;;;;;;;;;;5066566;28;19924;-71
2022/01/05 02:34:27;;;;;;;;;;;;;;;;;;5069678;28;20297;-70
2022/01/05 02:36:54;;;;;;;;;;;;;;;;;;5068049;28;19924;-71
2022/01/05 02:39:21;;;;;;;;;;;;;;;;;;5066465;28;19931;-70
2022/01/05 02:41:49;;;;;;;;;;;;;;;;;;5065381;28;20334;-72
2022/01/05 02:44:16;;;;;;;;;;;;;;;;;;5067171;28;19924;-71
2022/01/05 02:46:43;;;;;;;;;;;;;;;;;;5067069;28;19982;-71
2022/01/05 02:49:10;;;;;;;;;;;;;;;;;;5061154;28;19924;-71
2022/01/05 02:51:37;;;;;;;;;;;;;;;;;;5067602;28;19993;-72
2022/01/05 02:54:04;;;;;;;;;;;;;;;;;;5070360;28;20015;-72
2022/01/05 02:56:31;;;;;;;;;;;;;;;;;;5065336;28;20308;-71
2022/01/05 02:58:58;;;;;;;;;;;;;;;;;;5062914;28;19932;-72
2022/01/05 03:01:25;;;;;;;;;;;;;;;;;;5063456;28;20385;-69
2022/01/05 03:03:52;;;;;;;;;;;;;;;;;;5069432;28;20235;-71
2022/01/05 03:06:19;;;;;;;;;;;;;;;;;;5064432;28;19929;-71
2022/01/05 03:08:46;;;;;;;;;;;;;;;;;;5065212;28;19929;-71
2022/01/05 03:11:13;;;;;;;;;;;;;;;;;;5069286;28;19932;-70
2022/01/05 03:13:40;;;;;;;;;;;;;;;;;;5071305;28;19924;-71
2022/01/05 03:16:06;;;;;;;;;;;;;;;;;;5069254;28;20385;-71
2022/01/05 03:18:33;;;;;;;;;;;;;;;;;;5072089;28;19928;-69
2022/01/05 03:21:01;;;;;;;;;;;;;;;;;;5074741;28;19924;-71
2022/01/05 03:23:28;;;;;;;;;;;;;;;;;;5070950;28;19932;-71
2022/01/05 03:25:55;;;;;;;;;;;;;;;;;;5067441;28;20397;-71
2022/01/05 03:28:22;;;;;;;;;;;;;;;;;;5066607;28;19926;-71
2022/01/05 03:30:49;;;;;;;;;;;;;;;;;;5068165;28;20181;-71
2022/01/05 03:33:20;;;;;;;;;;;;;;;;;;5070284;28;20404;-70
2022/01/05 03:35:47;;;;;;;;;;;;;;;;;;5069293;28;19932;-71
2022/01/05 03:38:15;;;;;;;;;;;;;;;;;;5070562;28;19928;-72
2022/01/05 03:40:42;;;;;;;;;;;;;;;;;;5070614;28;20019;-71
2022/01/05 03:43:09;;;;;;;;;;;;;;;;;;5069328;28;19928;-71
2022/01/05 03:45:36;;;;;;;;;;;;;;;;;;5069049;28;20007;-71
2022/01/05 03:48:03;;;;;;;;;;;;;;;;;;5067052;28;20472;-71
2022/01/05 03:50:31;;;;;;;;;;;;;;;;;;5067736;28;19925;-71
2022/01/05 03:52:58;;;;;;;;;;;;;;;;;;5071669;28;20321;-71
2022/01/05 03:55:24;;;;;;;;;;;;;;;;;;5066788;28;20297;-70
2022/01/05 03:57:51;;;;;;;;;;;;;;;;;;5071946;28;19925;-71
2022/01/05 04:00:18;;;;;;;;;;;;;;;;;;5073609;28;19931;-71
2022/01/05 04:02:45;;;;;;;;;;;;;;;;;;5071569;28;20286;-72
2022/01/05 04:05:12;;;;;;;;;;;;;;;;;;5069916;28;19928;-72
2022/01/05 04:07:39;;;;;;;;;;;;;;;;;;5068675;28;20286;-72
2022/01/05 04:10:06;;;;;;;;;;;;;;;;;;5070270;28;19931;-71
2022/01/05 04:12:33;;;;;;;;;;;;;;;;;;5070261;28;19929;-70
2022/01/05 04:15:00;;;;;;;;;;;;;;;;;;5072085;28;19932;-71
2022/01/05 04:17:27;;;;;;;;;;;;;;;;;;5066842;28;19924;-71
2022/01/05 04:19:54;;;;;;;;;;;;;;;;;;5070427;28;19925;-71
2022/01/05 04:22:21;;;;;;;;;;;;;;;;;;5067177;28;19929;-71
2022/01/05 04:24:48;;;;;;;;;;;;;;;;;;5068841;28;19936;-71
2022/01/05 04:27:15;;;;;;;;;;;;;;;;;;5071687;28;20312;-71
2022/01/05 04:29:44;;;;;;;;;;;;;;;;;;5072141;28;20447;-71
2022/01/05 04:32:11;;;;;;;;;;;;;;;;;;5068648;28;19924;-71
2022/01/05 04:34:38;;;;;;;;;;;;;;;;;;5071442;28;20403;-71
2022/01/05 04:37:05;;;;;;;;;;;;;;;;;;5071214;28;19924;-72
2022/01/05 04:39:32;;;;;;;;;;;;;;;;;;5069272;28;19924;-72
2022/01/05 04:41:59;;;;;;;;;;;;;;;;;;5063068;28;20296;-72
2022/01/05 04:44:26;;;;;;;;;;;;;;;;;;5067989;28;19955;-72
2022/01/05 04:46:53;;;;;;;;;;;;;;;;;;5066282;28;19932;-71
2022/01/05 04:49:20;;;;;;;;;;;;;;;;;;5068329;28;19935;-71
2022/01/05 04:51:47;;;;;;;;;;;;;;;;;;5066685;28;19932;-71
2022/01/05 04:54:13;;;;;;;;;;;;;;;;;;5065341;28;19948;-70
2022/01/05 04:56:40;;;;;;;;;;;;;;;;;;5069423;28;19929;-71
2022/01/05 04:59:07;;;;;;;;;;;;;;;;;;5071832;28;20404;-71
2022/01/05 05:01:34;;;;;;;;;;;;;;;;;;5069736;28;19931;-72
2022/01/05 05:04:01;;;;;;;;;;;;;;;;;;5071498;28;19928;-72
2022/01/05 05:06:28;;;;;;;;;;;;;;;;;;5069813;28;19925;-71
2022/01/05 05:08:55;;;;;;;;;;;;;;;;;;5068812;28;19955;-72
2022/01/05 05:11:22;;;;;;;;;;;;;;;;;;5071417;28;19925;-71
2022/01/05 05:13:49;;;;;;;;;;;;;;;;;;5068295;28;20301;-71
2022/01/05 05:16:16;;;;;;;;;;;;;;;;;;5066541;28;19925;-71
2022/01/05 05:18:43;;;;;;;;;;;;;;;;;;5067277;28;20312;-71
2022/01/05 05:21:10;;;;;;;;;;;;;;;;;;5070913;28;19928;-72
2022/01/05 05:23:37;;;;;;;;;;;;;;;;;;5066868;28;20019;-72
2022/01/05 05:26:04;;;;;;;;;;;;;;;;;;5066637;28;19932;-72
2022/01/05 05:28:31;;;;;;;;;;;;;;;;;;5066017;28;19931;-71
2022/01/05 05:30:58;;;;;;;;;;;;;;;;;;5068602;28;19924;-71
2022/01/05 05:33:25;;;;;;;;;;;;;;;;;;5065907;28;19925;-71
2022/01/05 05:35:52;;;;;;;;;;;;;;;;;;5068648;28;19924;-69
2022/01/05 05:38:19;;;;;;;;;;;;;;;;;;5071031;28;19924;-72
2022/01/05 05:40:46;;;;;;;;;;;;;;;;;;5068312;28;19971;-72
2022/01/05 05:43:13;;;;;;;;;;;;;;;;;;5069356;28;19924;-71
2022/01/05 05:45:40;;;;;;;;;;;;;;;;;;5064816;28;20053;-72
2022/01/05 05:48:07;;;;;;;;;;;;;;;;;;5065702;28;19954;-71
2022/01/05 05:50:34;;;;;;;;;;;;;;;;;;5061998;28;19928;-72
2022/01/05 05:53:01;;;;;;;;;;;;;;;;;;5067433;28;19932;-71
2022/01/05 05:55:28;;;;;;;;;;;;;;;;;;5065633;28;20006;-70
2022/01/05 05:57:55;;;;;;;;;;;;;;;;;;5071124;28;20289;-71
2022/01/05 06:00:22;;;;;;;;;;;;;;;;;;5064838;28;19925;-70
2022/01/05 06:02:49;;;;;;;;;;;;;;;;;;5067306;28;19975;-71
2022/01/05 06:05:16;;;;;;;;;;;;;;;;;;5068424;28;19925;-72
2022/01/05 06:07:43;;;;;;;;;;;;;;;;;;5068615;28;19928;-71
2022/01/05 06:10:10;;;;;;;;;;;;;;;;;;5061291;28;19928;-71
2022/01/05 06:12:37;;;;;;;;;;;;;;;;;;5062937;28;19924;-72
2022/01/05 06:15:04;;;;;;;;;;;;;;;;;;5062454;28;19925;-78
2022/01/05 06:17:31;;;;;;;;;;;;;;;;;;5065391;28;19932;-80
2022/01/05 06:19:58;;;;;;;;;;;;;;;;;;5066662;28;20428;-79
2022/01/05 06:22:26;;;;;;;;;;;;;;;;;;5070073;28;20400;-79
2022/01/05 06:24:53;;;;;;;;;;;;;;;;;;5067468;28;19928;-78
2022/01/05 06:27:20;;;;;;;;;;;;;;;;;;5065238;28;19932;-77
2022/01/05 06:29:47;;;;;;;;;;;;;;;;;;5064703;28;20396;-78
2022/01/05 06:32:14;;;;;;;;;;;;;;;;;;5066330;28;19925;-80
2022/01/05 06:34:41;;;;;;;;;;;;;;;;;;5068241;28;19924;-79
2022/01/05 06:37:08;;;;;;;;;;;;;;;;;;5069296;28;19925;-78
2022/01/05 06:39:35;;;;;;;;;;;;;;;;;;5069062;28;19931;-78
2022/01/05 06:42:02;;;;;;;;;;;;;;;;;;5066552;28;19929;-78
2022/01/05 06:44:29;;;;;;;;;;;;;;;;;;5066116;28;19925;-78
2022/01/05 06:46:56;;;;;;;;;;;;;;;;;;5065894;28;19925;-78
2022/01/05 06:49:23;;;;;;;;;;;;;;;;;;5070569;28;20043;-78
2022/01/05 06:51:51;;;;;;;;;;;;;;;;;;5060543;28;19932;-78
2022/01/05 06:54:18;;;;;;;;;;;;;;;;;;5069780;28;19925;-78
2022/01/05 06:56:46;;;;;;;;;;;;;;;;;;5065861;28;19931;-77
2022/01/05 06:59:13;;;;;;;;;;;;;;;;;;5067578;28;19928;-77
2022/01/05 07:01:40;;;;;;;;;;;;;;;;;;5059004;28;19935;-74
2022/01/05 07:04:07;;;;;;;;;;;;;;;;;;5062052;28;19924;-72
2022/01/05 07:06:34;;;;;;;;;;;;;;;;;;5067016;28;19925;-76
2022/01/05 07:09:01;;;;;;;;;;;;;;;;;;5064552;28;19946;-76
2022/01/05 07:11:28;;;;;;;;;;;;;;;;;;5067553;28;19928;-76
2022/01/05 07:13:55;;;;;;;;;;;;;;;;;;5067574;28;19948;-77
2022/01/05 07:16:22;;;;;;;;;;;;;;;;;;5069086;28;19925;-78
2022/01/05 07:18:49;;;;;;;;;;;;;;;;;;5066833;28;19932;-79
2022/01/05 07:21:16;;;;;;;;;;;;;;;;;;5068988;28;20332;-79
2022/01/05 07:23:43;;;;;;;;;;;;;;;;;;5065126;28;19931;-79
2022/01/05 07:26:10;;;;;;;;;;;;;;;;;;5059109;28;20408;-79
2022/01/05 07:28:37;;;;;;;;;;;;;;;;;;5067769;28;19924;-80
2022/01/05 07:31:04;;;;;;;;;;;;;;;;;;5068377;28;19932;-78
2022/01/05 07:33:31;;;;;;;;;;;;;;;;;;5069137;28;19924;-79
2022/01/05 07:35:58;;;;;;;;;;;;;;;;;;5070742;28;19925;-76
2022/01/05 07:38:27;;;;;;;;;;;;;;;;;;5068897;28;19925;-78
2022/01/05 07:40:54;;;;;;;;;;;;;;;;;;5067091;28;20034;-79
2022/01/05 07:43:22;;;;;;;;;;;;;;;;;;5065931;28;19994;-77
2022/01/05 07:45:49;;;;;;;;;;;;;;;;;;5061680;28;20296;-78
2022/01/05 07:48:16;;;;;;;;;;;;;;;;;;5065472;28;19924;-71
2022/01/05 07:50:43;;;;;;;;;;;;;;;;;;5063657;28;19924;-80
2022/01/05 07:53:10;;;;;;;;;;;;;;;;;;5064037;28;19928;-78
2022/01/05 07:55:37;;;;;;;;;;;;;;;;;;5068362;28;19925;-79
2022/01/05 07:58:04;;;;;;;;;;;;;;;;;;5067832;28;19955;-80
2022/01/05 08:00:31;;;;;;;;;;;;;;;;;;5061624;28;19938;-80
2022/01/05 08:02:58;;;;;;;;;;;;;;;;;;5067133;28;20011;-81
2022/01/05 08:05:25;;;;;;;;;;;;;;;;;;5067999;28;19931;-80
2022/01/05 08:07:52;;;;;;;;;;;;;;;;;;5072115;28;19924;-81
2022/01/05 08:10:19;;;;;;;;;;;;;;;;;;5070938;28;19925;-81
2022/01/05 08:12:46;;;;;;;;;;;;;;;;;;5070527;28;20293;-81
2022/01/05 08:15:15;;;;;;;;;;;;;;;;;;5067222;28;19925;-81
2022/01/05 08:17:42;;;;;;;;;;;;;;;;;;5065214;28;19974;-81
2022/01/05 08:20:10;;;;;;;;;;;;;;;;;;5069913;28;19933;-81
2022/01/05 08:22:40;;;;;;;;;;;;;;;;;;5068361;28;19929;-80
2022/01/05 08:25:07;;;;;;;;;;;;;;;;;;5050881;28;20034;-80
2022/01/05 08:27:34;;;;;;;;;;;;;;;;;;5063259;28;20298;-78
2022/01/05 08:30:04;;;;;;;;;;;;;;;;;;5064031;28;19924;-81
2022/01/05 08:32:31;;;;;;;;;;;;;;;;;;5066814;28;20020;-80
2022/01/05 08:34:58;;;;;;;;;;;;;;;;;;5065882;28;19979;-79
2022/01/05 08:37:25;;;;;;;;;;;;;;;;;;5069085;28;19932;-77
2022/01/05 08:39:53;;;;;;;;;;;;;;;;;;5068303;28;19932;-80
2022/01/05 08:42:21;;;;;;;;;;;;;;;;;;5066688;28;19954;-82
2022/01/05 08:44:48;;;;;;;;;;;;;;;;;;5070889;28;19931;-81
2022/01/05 08:47:14;;;;;;;;;;;;;;;;;;5064613;28;19932;-76
2022/01/05 08:49:41;;;;;;;;;;;;;;;;;;5068827;28;20209;-77
2022/01/05 08:52:08;;;;;;;;;;;;;;;;;;5069353;28;19950;-80
2022/01/05 08:54:35;;;;;;;;;;;;;;;;;;5071310;28;19925;-80
2022/01/05 08:57:02;;;;;;;;;;;;;;;;;;5069210;28;19935;-80
2022/01/05 08:59:29;;;;;;;;;;;;;;;;;;5069510;28;20421;-80
2022/01/05 09:01:56;;;;;;;;;;;;;;;;;;5066961;28;20015;-79
2022/01/05 09:04:23;;;;;;;;;;;;;;;;;;5062856;28;19939;-80
2022/01/05 09:06:50;;;;;;;;;;;;;;;;;;5068868;28;19933;-78
2022/01/05 09:09:17;;;;;;;;;;;;;;;;;;5070799;28;19931;-77
2022/01/05 09:11:44;;;;;;;;;;;;;;;;;;5062104;28;19966;-81
2022/01/05 09:14:11;;;;;;;;;;;;;;;;;;5069372;28;20397;-82
2022/01/05 09:16:38;;;;;;;;;;;;;;;;;;5069488;28;20286;-81
2022/01/05 09:19:05;;;;;;;;;;;;;;;;;;5067321;28;19924;-81
2022/01/05 09:21:33;;;;;;;;;;;;;;;;;;5058737;28;19931;-81
2022/01/05 09:24:00;;;;;;;;;;;;;;;;;;5062273;28;19936;-79
2022/01/05 09:26:27;;;;;;;;;;;;;;;;;;5069894;28;19948;-78
2022/01/05 09:28:54;;;;;;;;;;;;;;;;;;5064627;28;19925;-79
2022/01/05 09:31:20;;;;;;;;;;;;;;;;;;5065625;28;20329;-79
2022/01/05 09:33:47;;;;;;;;;;;;;;;;;;5064776;28;20086;-78
2022/01/05 09:36:18;;;;;;;;;;;;;;;;;;5065851;28;19935;-79
2022/01/05 09:44:14;;;;;;;;;;;;;;;;;;5065865;28;20450;-78
2022/01/05 09:46:41;;;;;;;;;;;;;;;;;;5061839;28;19925;-77
2022/01/05 09:49:08;;;;;;;;;;;;;;;;;;5062943;28;19924;-73
2022/01/05 09:51:35;;;;;;;;;;;;;;;;;;5066712;28;19931;-76
2022/01/05 09:54:02;;;;;;;;;;;;;;;;;;5065524;28;20274;-77
2022/01/05 09:56:29;;;;;;;;;;;;;;;;;;5065394;28;19925;-78
2022/01/05 09:58:56;;;;;;;;;;;;;;;;;;5064791;28;19955;-79
2022/01/05 10:01:24;;;;;;;;;;;;;;;;;;5063972;28;19928;-80
2022/01/05 10:03:51;;;;;;;;;;;;;;;;;;5064272;28;20389;-78
2022/01/05 10:06:18;;;;;;;;;;;;;;;;;;5063682;28;19931;-73
2022/01/05 10:08:45;;;;;;;;;;;;;;;;;;5065943;28;19925;-77
2022/01/05 10:11:12;;;;;;;;;;;;;;;;;;5066640;28;20004;-79
2022/01/05 10:13:39;;;;;;;;;;;;;;;;;;5069207;28;19928;-80
2022/01/05 10:16:07;;;;;;;;;;;;;;;;;;5066757;28;19932;-77
2022/01/05 10:18:34;;;;;;;;;;;;;;;;;;5062540;28;20003;-78
2022/01/05 10:21:02;;;;;;;;;;;;;;;;;;5062018;28;19967;-78
2022/01/05 10:23:29;;;;;;;;;;;;;;;;;;5065186;28;19929;-82
2022/01/05 10:25:56;;;;;;;;;;;;;;;;;;5064491;28;20392;-80
2022/01/05 10:28:22;;;;;;;;;;;;;;;;;;5068896;28;20402;-81
2022/01/05 10:30:50;;;;;;;;;;;;;;;;;;5069389;28;19928;-81
2022/01/05 10:33:17;;;;;;;;;;;;;;;;;;5067655;28;19925;-79
2022/01/05 10:35:44;;;;;;;;;;;;;;;;;;5070349;28;19925;-80
2022/01/05 10:38:15;;;;;;;;;;;;;;;;;;5069003;28;19949;-78
2022/01/05 10:40:43;;;;;;;;;;;;;;;;;;5068720;28;20639;-78
2022/01/05 10:43:10;;;;;;;;;;;;;;;;;;5064921;28;19924;-77
2022/01/05 10:45:37;;;;;;;;;;;;;;;;;;5067521;28;19968;-79
2022/01/05 10:48:04;;;;;;;;;;;;;;;;;;5066077;28;19982;-81
2022/01/05 10:50:31;;;;;;;;;;;;;;;;;;5067228;28;19928;-80
2022/01/05 10:52:58;;;;;;;;;;;;;;;;;;5065749;28;20116;-78
2022/01/05 10:55:27;;;;;;;;;;;;;;;;;;5070773;28;19929;-80
2022/01/05 10:57:55;;;;;;;;;;;;;;;;;;5071925;28;19947;-81
2022/01/05 11:00:22;;;;;;;;;;;;;;;;;;5068045;28;20348;-80
2022/01/05 11:02:51;;;;;;;;;;;;;;;;;;5070147;28;19928;-81
2022/01/05 11:05:19;;;;;;;;;;;;;;;;;;5070569;28;19931;-80
2022/01/05 11:07:47;;;;;;;;;;;;;;;;;;5063434;28;20007;-80
2022/01/05 11:10:14;;;;;;;;;;;;;;;;;;5066576;28;19986;-78
2022/01/05 11:12:41;;;;;;;;;;;;;;;;;;5068740;28;19925;-80
2022/01/05 11:15:10;;;;;;;;;;;;;;;;;;5070163;28;19981;-78
2022/01/05 11:17:39;;;;;;;;;;;;;;;;;;5069793;28;20007;-81
2022/01/05 11:20:07;;;;;;;;;;;;;;;;;;5069753;28;19968;-81
2022/01/05 11:22:34;;;;;;;;;;;;;;;;;;5069950;28;19954;-76
2022/01/05 11:25:02;;;;;;;;;;;;;;;;;;5068971;28;19925;-81
2022/01/05 11:27:29;;;;;;;;;;;;;;;;;;5071131;28;20015;-80
2022/01/05 11:29:57;;;;;;;;;;;;;;;;;;5069397;28;19928;-79
2022/01/05 11:32:27;;;;;;;;;;;;;;;;;;5070175;28;19924;-79
2022/01/05 11:34:56;;;;;;;;;;;;;;;;;;5071194;28;19994;-80
2022/01/05 11:37:27;;;;;;;;;;;;;;;;;;5072270;28;20308;-77
2022/01/05 11:39:54;;;;;;;;;;;;;;;;;;5068425;28;19994;-80
2022/01/05 11:42:25;;;;;;;;;;;;;;;;;;5073806;28;19967;-74
2022/01/05 11:44:54;;;;;;;;;;;;;;;;;;5072189;28;20318;-80
2022/01/05 11:47:27;;;;;;;;;;;;;;;;;;5071091;28;19951;-80
2022/01/05 11:49:57;;;;;;;;;;;;;;;;;;5073599;28;19924;-78
2022/01/05 11:52:26;;;;;;;;;;;;;;;;;;5066858;28;19930;-81
2022/01/05 11:54:55;;;;;;;;;;;;;;;;;;5069102;28;20007;-79
2022/01/05 11:57:23;;;;;;;;;;;;;;;;;;5074961;28;19924;-80
2022/01/05 11:59:52;;;;;;;;;;;;;;;;;;5075894;28;19985;-77
2022/01/05 12:02:22;;;;;;;;;;;;;;;;;;5072153;28;19928;-77
2022/01/05 12:04:51;;;;;;;;;;;;;;;;;;5073923;28;20147;-79
2022/01/05 12:07:21;;;;;;;;;;;;;;;;;;5070096;28;19971;-80
2022/01/05 12:09:49;;;;;;;;;;;;;;;;;;5074487;28;19971;-79
2022/01/05 12:12:17;;;;;;;;;;;;;;;;;;5067568;28;19929;-80
2022/01/05 12:14:44;;;;;;;;;;;;;;;;;;5074162;28;19925;-80
2022/01/05 12:17:11;;;;;;;;;;;;;;;;;;5067624;28;19928;-79
2022/01/05 12:19:41;;;;;;;;;;;;;;;;;;5068443;28;20011;-80
2022/01/05 12:22:08;;;;;;;;;;;;;;;;;;5073072;28;19924;-77
2022/01/05 12:24:36;;;;;;;;;;;;;;;;;;5074210;28;19931;-79
2022/01/05 12:27:05;;;;;;;;;;;;;;;;;;5069592;28;19928;-80
2022/01/05 12:29:36;;;;;;;;;;;;;;;;;;5070911;28;20268;-73
2022/01/05 12:32:04;;;;;;;;;;;;;;;;;;5064487;28;20007;-78
2022/01/05 12:37:21;;;;;;;;;;;;;;;;;;5064040;28;19926;-78
2022/01/05 12:39:51;;;;;;;;;;;;;;;;;;5066475;28;19924;-78
2022/01/05 12:42:19;;;;;;;;;;;;;;;;;;5068972;28;20385;-79
2022/01/05 12:44:46;;;;;;;;;;;;;;;;;;5071395;28;19925;-79
2022/01/05 12:47:13;;;;;;;;;;;;;;;;;;5071241;28;20362;-76
2022/01/05 12:49:43;;;;;;;;;;;;;;;;;;5063558;28;19928;-79
2022/01/05 12:52:17;;;;;;;;;;;;;;;;;;5064997;28;19932;-78
2022/01/05 12:54:52;;;;;;;;;;;;;;;;;;5071336;28;19931;-78
2022/01/05 12:57:19;;;;;;;;;;;;;;;;;;5067379;28;19981;-77
2022/01/05 12:59:47;;;;;;;;;;;;;;;;;;5065219;28;19928;-76
2022/01/05 13:02:14;;;;;;;;;;;;;;;;;;5075489;22;20049;-78
2022/01/05 13:04:41;;;;;;;;;;;;;;;;;;5043750;28;19933;-75
2022/01/05 13:07:08;;;;;;;;;;;;;;;;;;5043148;28;20014;-79
2022/01/05 13:09:36;;;;;;;;;;;;;;;;;;5045524;28;20032;-79
2022/01/05 13:12:03;;;;;;;;;;;;;;;;;;5047015;28;20012;-76
2022/01/05 13:14:31;;;;;;;;;;;;;;;;;;5048351;28;20313;-76
2022/01/05 13:16:58;;;;;;;;;;;;;;;;;;5043445;28;19926;-77
2022/01/05 13:19:25;;;;;;;;;;;;;;;;;;5041670;28;20024;-80
2022/01/05 13:21:53;;;;;;;;;;;;;;;;;;5045634;28;20027;-81
2022/01/05 13:24:20;;;;;;;;;;;;;;;;;;5047574;28;20366;-80
2022/01/05 13:26:46;;;;;;;;;;;;;;;;;;5045115;28;20369;-79
2022/01/05 13:29:13;;;;;;;;;;;;;;;;;;5040249;28;19939;-81
2022/01/05 13:31:40;;;;;;;;;;;;;;;;;;5047609;28;19925;-83
2022/01/05 13:34:07;;;;;;;;;;;;;;;;;;5039811;28;19932;-78
2022/01/05 13:36:34;;;;;;;;;;;;;;;;;;5050907;28;19931;-80
2022/01/05 13:39:01;;;;;;;;;;;;;;;;;;5044856;28;20304;-79
2022/01/05 13:41:28;;;;;;;;;;;;;;;;;;5046850;28;19929;-80
2022/01/05 13:43:55;;;;;;;;;;;;;;;;;;5039387;28;19925;-83
2022/01/05 13:46:22;;;;;;;;;;;;;;;;;;5048164;28;20293;-81
2022/01/05 13:48:49;;;;;;;;;;;;;;;;;;5047322;28;19929;-83
2022/01/05 13:51:16;;;;;;;;;;;;;;;;;;5044057;28;19924;-79
2022/01/05 13:53:44;;;;;;;;;;;;;;;;;;5046529;28;20410;-80
2022/01/05 13:56:11;;;;;;;;;;;;;;;;;;5042233;28;20207;-84
2022/01/05 13:58:38;;;;;;;;;;;;;;;;;;5044778;28;19929;-80
2022/01/05 14:01:04;;;;;;;;;;;;;;;;;;5039900;28;19925;-81
2022/01/05 14:03:31;;;;;;;;;;;;;;;;;;5046332;28;19929;-76
2022/01/05 14:05:58;;;;;;;;;;;;;;;;;;5047180;28;20400;-74
2022/01/05 14:08:25;;;;;;;;;;;;;;;;;;5041762;28;19931;-75
2022/01/05 14:10:52;;;;;;;;;;;;;;;;;;5048098;28;19929;-76
2022/01/05 14:13:19;;;;;;;;;;;;;;;;;;5043576;28;20401;-75
2022/01/05 14:15:46;;;;;;;;;;;;;;;;;;5042108;28;20257;-73
2022/01/05 14:18:14;;;;;;;;;;;;;;;;;;5043801;28;19929;-74
2022/01/05 14:20:41;;;;;;;;;;;;;;;;;;5046400;28;19982;-75
2022/01/05 14:23:08;;;;;;;;;;;;;;;;;;5044105;28;20386;-77
2022/01/05 14:25:35;;;;;;;;;;;;;;;;;;5041883;28;20402;-76
2022/01/05 14:28:02;;;;;;;;;;;;;;;;;;5043351;28;19924;-74
2022/01/05 14:30:31;;;;;;;;;;;;;;;;;;5044528;28;19929;-74
2022/01/05 14:32:58;;;;;;;;;;;;;;;;;;5045021;28;19964;-77
2022/01/05 14:35:25;;;;;;;;;;;;;;;;;;5042736;28;20399;-75
2022/01/05 14:37:52;;;;;;;;;;;;;;;;;;5045105;28;19929;-74
2022/01/05 14:40:19;;;;;;;;;;;;;;;;;;5045361;28;19929;-75
2022/01/05 14:42:46;;;;;;;;;;;;;;;;;;5043217;28;19931;-74
2022/01/05 14:45:13;;;;;;;;;;;;;;;;;;5045838;28;19971;-74
2022/01/05 14:47:40;;;;;;;;;;;;;;;;;;5041304;28;19925;-74
2022/01/05 14:50:07;;;;;;;;;;;;;;;;;;5040857;28;20386;-74
2022/01/05 14:52:34;;;;;;;;;;;;;;;;;;5040721;28;19932;-74
2022/01/05 14:55:01;;;;;;;;;;;;;;;;;;5045391;28;20657;-69
2022/01/05 14:57:28;;;;;;;;;;;;;;;;;;5041284;28;20379;-71
2022/01/05 14:59:55;;;;;;;;;;;;;;;;;;5041954;28;20422;-69
2022/01/05 15:02:22;;;;;;;;;;;;;;;;;;5042247;28;19935;-76
2022/01/05 15:04:49;;;;;;;;;;;;;;;;;;5040890;28;19976;-75
2022/01/05 15:07:16;;;;;;;;;;;;;;;;;;5045466;28;19931;-74
2022/01/05 15:09:43;;;;;;;;;;;;;;;;;;5049599;28;19925;-73
2022/01/05 15:12:10;;;;;;;;;;;;;;;;;;5047874;28;19929;-73
2022/01/05 15:14:37;;;;;;;;;;;;;;;;;;5048746;28;19933;-74
2022/01/05 15:17:03;;;;;;;;;;;;;;;;;;5048619;28;20313;-73
2022/01/05 15:19:30;;;;;;;;;;;;;;;;;;5046463;28;19925;-74
2022/01/05 15:21:57;;;;;;;;;;;;;;;;;;5052561;28;19925;-74
2022/01/05 15:24:25;;;;;;;;;;;;;;;;;;5047908;28;20000;-75
2022/01/05 15:26:52;;;;;;;;;;;;;;;;;;5047731;28;19932;-74
2022/01/05 15:29:19;;;;;;;;;;;;;;;;;;5049687;28;19951;-75
2022/01/05 15:31:46;;;;;;;;;;;;;;;;;;5052125;28;19931;-70
2022/01/05 15:34:13;;;;;;;;;;;;;;;;;;5048929;28;19933;-71
2022/01/05 15:36:40;;;;;;;;;;;;;;;;;;5050683;28;19925;-70
2022/01/05 15:39:07;;;;;;;;;;;;;;;;;;5051401;28;19925;-71
2022/01/05 15:41:34;;;;;;;;;;;;;;;;;;5030523;28;19948;-69
2022/01/05 15:44:01;;;;;;;;;;;;;;;;;;5060332;28;19924;-73
2022/01/05 15:46:28;;;;;;;;;;;;;;;;;;5057615;28;20020;-74
2022/01/05 15:48:55;;;;;;;;;;;;;;;;;;5048263;28;19925;-73
2022/01/05 15:51:21;;;;;;;;;;;;;;;;;;5049163;28;19964;-73
2022/01/05 15:53:48;;;;;;;;;;;;;;;;;;5048886;28;20340;-73
2022/01/05 15:56:20;;;;;;;;;;;;;;;;;;5047308;28;19932;-73
2022/01/05 16:01:32;;;;;;;;;;;;;;;;;;5052446;28;19924;-75
2022/01/05 16:04:01;;;;;;;;;;;;;;;;;;5052745;28;20015;-73
2022/01/05 16:06:28;;;;;;;;;;;;;;;;;;5051206;28;19932;-73
2022/01/05 16:08:55;;;;;;;;;;;;;;;;;;5046137;28;19982;-74
2022/01/05 16:11:22;;;;;;;;;;;;;;;;;;5053757;28;19936;-73
2022/01/05 16:13:49;;;;;;;;;;;;;;;;;;5048440;28;19980;-74
2022/01/05 16:16:17;;;;;;;;;;;;;;;;;;5049230;28;20393;-73
2022/01/05 16:18:44;;;;;;;;;;;;;;;;;;5049694;28;19932;-75
2022/01/05 16:21:14;;;;;;;;;;;;;;;;;;5047587;28;19971;-76
2022/01/05 16:23:41;;;;;;;;;;;;;;;;;;5048845;28;19925;-79
2022/01/05 16:26:08;;;;;;;;;;;;;;;;;;5047008;28;19936;-78
2022/01/05 16:28:35;;;;;;;;;;;;;;;;;;5043439;28;19929;-76
2022/01/05 16:31:02;;;;;;;;;;;;;;;;;;5050370;28;19935;-78
2022/01/05 16:33:29;;;;;;;;;;;;;;;;;;5051466;28;19924;-78
2022/01/05 16:35:57;;;;;;;;;;;;;;;;;;5050422;28;20015;-79
2022/01/05 16:38:25;;;;;;;;;;;;;;;;;;5047692;28;19924;-80
2022/01/05 16:40:52;;;;;;;;;;;;;;;;;;5046791;28;19943;-77
2022/01/05 16:43:21;;;;;;;;;;;;;;;;;;5045555;28;19928;-79
2022/01/05 16:45:48;;;;;;;;;;;;;;;;;;5050465;28;19935;-80
2022/01/05 16:48:15;;;;;;;;;;;;;;;;;;5047209;28;20008;-81
2022/01/05 16:50:42;;;;;;;;;;;;;;;;;;5044436;28;20015;-76
2022/01/05 16:53:09;;;;;;;;;;;;;;;;;;5047255;28;20278;-78
2022/01/05 16:55:38;;;;;;;;;;;;;;;;;;5049032;28;19925;-78
2022/01/05 17:00:49;;;;;;;;;;;;;;;;;;5041215;28;20505;-79